createdAt,value
2017-10-22T00:02:18.387Z,99.90
2017-10-22T00:04:46.737Z,99.90
2017-10-22T00:07:15.033Z,99.90
2017-10-22T00:09:43.376Z,99.90
2017-10-22T00:12:11.681Z,99.90
2017-10-22T00:14:40.753Z,99.90
2017-10-22T00:17:09.090Z,99.90
2017-10-22T00:19:38.170Z,99.90
2017-10-22T00:22:06.496Z,99.90
2017-10-22T00:24:34.822Z,99.90
2017-10-22T00:27:03.117Z,99.90
2017-10-22T00:29:31.452Z,99.90
2017-10-22T00:31:59.755Z,99.90
2017-10-22T00:34:28.060Z,99.90
2017-10-22T00:36:56.378Z,99.90
2017-10-22T00:39:24.729Z,99.90
2017-10-22T00:41:53.833Z,99.90
2017-10-22T00:44:22.124Z,99.90
2017-10-22T00:46:50.460Z,99.90
2017-10-22T00:49:18.766Z,99.90
2017-10-22T00:51:47.106Z,99.90
2017-10-22T00:54:16.208Z,99.90
2017-10-22T00:56:44.509Z,99.90
2017-10-22T00:59:12.833Z,99.90
2017-10-22T01:01:41.134Z,99.90
2017-10-22T01:04:09.449Z,99.90
2017-10-22T01:06:37.787Z,99.90
2017-10-22T01:09:06.111Z,99.90
2017-10-22T01:11:34.413Z,99.90
2017-10-22T01:14:03.482Z,99.90
2017-10-22T01:16:32.565Z,99.90
2017-10-22T01:19:00.904Z,99.90
2017-10-22T01:21:29.977Z,99.90
2017-10-22T01:23:59.037Z,99.90
2017-10-22T01:26:27.370Z,99.90
2017-10-22T01:28:55.984Z,99.90
2017-10-22T01:31:24.507Z,99.90
2017-10-22T01:33:53.572Z,99.90
2017-10-22T01:36:21.905Z,99.90
2017-10-22T01:38:50.232Z,99.90
2017-10-22T01:41:18.542Z,99.90
2017-10-22T01:43:47.604Z,99.90
2017-10-22T01:46:16.702Z,99.90
2017-10-22T01:48:45.035Z,99.90
2017-10-22T01:51:14.149Z,99.90
2017-10-22T01:53:42.476Z,99.90
2017-10-22T01:56:11.586Z,99.90
2017-10-22T01:58:39.897Z,99.90
2017-10-22T02:01:08.239Z,99.90
2017-10-22T02:03:36.566Z,99.90
2017-10-22T02:06:04.861Z,99.90
2017-10-22T02:08:33.951Z,99.90
2017-10-22T02:11:02.241Z,99.90
2017-10-22T02:13:30.800Z,99.90
2017-10-22T02:15:59.092Z,99.90
2017-10-22T02:18:28.153Z,99.90
2017-10-22T02:20:57.261Z,99.90
2017-10-22T02:23:26.208Z,99.90
2017-10-22T02:25:56.032Z,99.90
2017-10-22T02:28:25.428Z,99.90
2017-10-22T02:30:53.729Z,99.90
2017-10-22T02:33:22.790Z,99.90
2017-10-22T02:35:51.209Z,99.90
2017-10-22T02:38:19.531Z,99.90
2017-10-22T02:40:48.198Z,99.90
2017-10-22T02:43:16.496Z,99.90
2017-10-22T02:45:44.831Z,99.90
2017-10-22T02:48:13.196Z,99.20
2017-10-22T02:50:41.513Z,98.50
2017-10-22T02:53:09.833Z,97.80
2017-10-22T02:55:38.978Z,96.30
2017-10-22T02:58:07.346Z,96.20
2017-10-22T03:00:36.521Z,94.40
2017-10-22T03:03:06.144Z,93.00
2017-10-22T03:05:34.444Z,92.80
2017-10-22T03:08:02.750Z,93.00
2017-10-22T03:10:31.090Z,92.20
2017-10-22T03:12:59.433Z,91.50
2017-10-22T03:15:27.743Z,90.80
2017-10-22T03:17:56.077Z,90.70
2017-10-22T03:20:24.378Z,90.40
2017-10-22T03:22:52.727Z,90.30
2017-10-22T03:25:21.105Z,91.30
2017-10-22T03:27:49.552Z,90.20
2017-10-22T03:30:18.158Z,90.60
2017-10-22T03:32:47.267Z,89.20
2017-10-22T03:35:15.609Z,89.20
2017-10-22T03:37:43.926Z,88.70
2017-10-22T03:40:12.299Z,88.30
2017-10-22T03:42:41.388Z,88.40
2017-10-22T03:45:09.729Z,88.40
2017-10-22T03:47:38.814Z,89.20
2017-10-22T03:50:07.126Z,89.10
2017-10-22T03:52:36.923Z,88.20
2017-10-22T03:55:05.231Z,88.10
2017-10-22T03:57:33.545Z,88.20
2017-10-22T04:00:01.870Z,86.80
2017-10-22T04:02:30.183Z,87.10
2017-10-22T04:04:58.515Z,87.10
2017-10-22T04:07:26.904Z,86.60
2017-10-22T04:09:55.287Z,85.80
2017-10-22T04:12:23.598Z,85.50
2017-10-22T04:14:52.662Z,85.80
2017-10-22T04:17:21.033Z,85.80
2017-10-22T04:19:50.097Z,85.60
2017-10-22T04:22:19.201Z,86.40
2017-10-22T04:24:47.546Z,86.30
2017-10-22T04:27:16.023Z,86.70
2017-10-22T04:29:44.378Z,87.70
2017-10-22T04:32:12.727Z,88.00
2017-10-22T04:34:41.063Z,88.60
2017-10-22T04:37:09.430Z,89.20
2017-10-22T04:39:37.742Z,89.60
2017-10-22T04:42:06.093Z,90.00
2017-10-22T04:44:34.411Z,90.20
2017-10-22T04:47:02.730Z,90.00
2017-10-22T04:49:31.260Z,90.10
2017-10-22T04:51:59.589Z,90.00
2017-10-22T04:54:27.892Z,89.90
2017-10-22T04:56:56.990Z,89.50
2017-10-22T04:59:25.309Z,89.40
2017-10-22T05:01:54.389Z,89.40
2017-10-22T05:04:22.747Z,89.40
2017-10-22T05:06:51.101Z,89.20
2017-10-22T05:09:19.398Z,89.40
2017-10-22T05:11:47.699Z,89.00
2017-10-22T05:14:16.030Z,88.70
2017-10-22T05:16:44.334Z,88.00
2017-10-22T05:19:12.642Z,88.10
2017-10-22T05:21:41.005Z,88.10
2017-10-22T05:24:09.313Z,87.70
2017-10-22T05:26:38.417Z,87.10
2017-10-22T05:29:06.737Z,87.10
2017-10-22T05:31:35.826Z,86.40
2017-10-22T05:34:04.299Z,86.30
2017-10-22T05:36:32.696Z,86.50
2017-10-22T05:39:01.026Z,87.00
2017-10-22T05:41:29.318Z,86.00
2017-10-22T05:43:58.370Z,85.80
2017-10-22T05:46:27.453Z,85.60
2017-10-22T05:48:55.789Z,85.60
2017-10-22T05:51:24.875Z,85.10
2017-10-22T05:53:53.200Z,85.10
2017-10-22T05:56:21.519Z,84.60
2017-10-22T05:58:49.842Z,84.20
2017-10-22T06:01:18.128Z,84.30
2017-10-22T06:03:47.213Z,82.60
2017-10-22T06:06:17.010Z,81.40
2017-10-22T06:08:45.326Z,81.40
2017-10-22T06:11:13.661Z,80.20
2017-10-22T06:13:41.958Z,80.50
2017-10-22T06:16:10.290Z,80.90
2017-10-22T06:18:38.622Z,81.50
2017-10-22T06:21:06.962Z,82.40
2017-10-22T06:23:35.267Z,82.20
2017-10-22T06:26:03.642Z,82.00
2017-10-22T06:28:31.953Z,83.10
2017-10-22T06:31:00.255Z,82.40
2017-10-22T06:33:28.624Z,81.70
2017-10-22T06:35:56.926Z,82.10
2017-10-22T06:38:25.290Z,82.40
2017-10-22T06:40:53.597Z,82.50
2017-10-22T06:43:21.935Z,83.30
2017-10-22T06:45:51.030Z,82.30
2017-10-22T06:48:19.361Z,82.30
2017-10-22T06:50:48.463Z,81.60
2017-10-22T06:53:17.717Z,81.60
2017-10-22T06:55:47.062Z,80.40
2017-10-22T06:58:15.437Z,80.50
2017-10-22T07:00:43.734Z,80.60
2017-10-22T07:03:12.029Z,78.50
2017-10-22T07:05:41.145Z,77.10
2017-10-22T07:08:09.895Z,77.00
2017-10-22T07:10:38.455Z,76.50
2017-10-22T07:13:06.822Z,76.60
2017-10-22T07:15:35.142Z,76.80
2017-10-22T07:18:03.461Z,76.70
2017-10-22T07:20:32.594Z,76.60
2017-10-22T07:23:00.939Z,76.60
2017-10-22T07:25:29.277Z,76.10
2017-10-22T07:27:58.154Z,75.80
2017-10-22T07:30:26.474Z,76.00
2017-10-22T07:32:54.801Z,76.50
2017-10-22T07:35:23.175Z,75.90
2017-10-22T07:37:52.271Z,75.20
2017-10-22T07:40:20.642Z,75.20
2017-10-22T07:42:48.972Z,75.40
2017-10-22T07:45:18.141Z,76.00
2017-10-22T07:47:46.927Z,75.90
2017-10-22T07:50:15.260Z,76.00
2017-10-22T07:52:43.605Z,76.10
2017-10-22T07:55:12.038Z,76.70
2017-10-22T07:57:40.416Z,75.90
2017-10-22T08:00:08.718Z,75.10
2017-10-22T08:02:37.034Z,75.50
2017-10-22T08:05:05.334Z,75.40
2017-10-22T08:07:33.693Z,75.40
2017-10-22T08:10:02.802Z,75.40
2017-10-22T08:12:31.141Z,75.40
2017-10-22T08:15:00.210Z,75.90
2017-10-22T08:17:28.538Z,75.90
2017-10-22T08:19:57.605Z,76.20
2017-10-22T08:22:26.701Z,76.20
2017-10-22T08:24:55.021Z,76.20
2017-10-22T08:27:23.348Z,76.30
2017-10-22T08:29:51.658Z,76.30
2017-10-22T08:32:20.022Z,76.00
2017-10-22T08:34:48.336Z,75.90
2017-10-22T08:37:16.647Z,76.00
2017-10-22T08:39:45.002Z,75.60
2017-10-22T08:42:13.337Z,75.80
2017-10-22T08:44:41.659Z,75.30
2017-10-22T08:47:09.975Z,75.40
2017-10-22T08:49:38.436Z,74.70
2017-10-22T08:52:06.816Z,75.40
2017-10-22T08:54:35.158Z,76.40
2017-10-22T08:57:04.217Z,74.80
2017-10-22T08:59:33.309Z,75.00
2017-10-22T09:02:01.817Z,74.90
2017-10-22T09:04:30.335Z,75.30
2017-10-22T09:06:58.636Z,74.80
2017-10-22T09:09:27.762Z,73.80
2017-10-22T09:11:56.825Z,73.90
2017-10-22T09:14:25.118Z,74.00
2017-10-22T09:16:53.475Z,75.00
2017-10-22T09:19:21.769Z,75.00
2017-10-22T09:21:50.187Z,76.40
2017-10-22T09:24:18.513Z,77.50
2017-10-22T09:26:46.836Z,78.00
2017-10-22T09:29:15.184Z,78.30
2017-10-22T09:31:43.478Z,79.00
2017-10-22T09:34:12.540Z,79.70
2017-10-22T09:36:40.869Z,79.00
2017-10-22T09:39:09.198Z,79.80
2017-10-22T09:41:37.546Z,78.90
2017-10-22T09:44:05.864Z,78.60
2017-10-22T09:46:34.198Z,78.60
2017-10-22T09:49:02.530Z,79.30
2017-10-22T09:51:30.855Z,79.70
2017-10-22T09:54:00.002Z,79.10
2017-10-22T09:56:29.425Z,79.10
2017-10-22T09:58:58.663Z,80.70
2017-10-22T10:01:26.984Z,80.60
2017-10-22T10:03:55.364Z,81.20
2017-10-22T10:06:23.687Z,80.70
2017-10-22T10:08:52.000Z,80.60
2017-10-22T10:11:20.379Z,81.90
2017-10-22T10:13:49.458Z,83.20
2017-10-22T10:16:18.198Z,81.60
2017-10-22T10:18:46.544Z,81.10
2017-10-22T10:21:14.868Z,81.80
2017-10-22T10:23:43.232Z,82.20
2017-10-22T10:26:11.570Z,81.50
2017-10-22T10:28:39.894Z,82.00
2017-10-22T10:31:09.001Z,82.80
2017-10-22T10:33:37.336Z,82.80
2017-10-22T10:36:05.641Z,83.20
2017-10-22T10:38:33.970Z,83.50
2017-10-22T10:41:02.305Z,84.50
2017-10-22T10:43:30.992Z,86.00
2017-10-22T10:46:02.336Z,85.90
2017-10-22T10:48:31.518Z,86.30
2017-10-22T10:51:01.284Z,85.60
2017-10-22T10:53:29.806Z,85.50
2017-10-22T10:55:58.123Z,88.00
2017-10-22T10:58:27.308Z,87.60
2017-10-22T11:00:55.638Z,87.50
2017-10-22T11:03:24.010Z,86.70
2017-10-22T11:05:53.177Z,89.40
2017-10-22T11:08:22.265Z,91.90
2017-10-22T11:10:50.630Z,91.90
2017-10-22T11:13:19.008Z,91.60
2017-10-22T11:15:47.343Z,91.20
2017-10-22T11:18:15.650Z,91.70
2017-10-22T11:20:43.979Z,91.10
2017-10-22T11:23:12.284Z,90.90
2017-10-22T11:25:41.390Z,90.90
2017-10-22T11:28:09.764Z,90.90
2017-10-22T11:30:38.114Z,91.50
2017-10-22T11:33:06.412Z,90.80
2017-10-22T11:35:34.753Z,91.10
2017-10-22T11:38:03.091Z,90.80
2017-10-22T11:40:31.436Z,91.80
2017-10-22T11:42:59.771Z,93.50
2017-10-22T11:45:28.118Z,92.70
2017-10-22T11:47:56.478Z,95.30
2017-10-22T11:50:24.814Z,96.30
2017-10-22T11:52:53.189Z,98.60
2017-10-22T11:55:21.521Z,98.50
2017-10-22T11:57:49.845Z,98.50
2017-10-22T12:00:18.194Z,97.30
2017-10-22T12:02:46.498Z,99.20
2017-10-22T12:05:14.823Z,99.20
2017-10-22T12:07:43.118Z,97.10
2017-10-22T12:10:11.455Z,97.50
2017-10-22T12:12:39.813Z,98.60
2017-10-22T12:15:08.106Z,99.10
2017-10-22T12:17:36.401Z,99.90
2017-10-22T12:20:05.490Z,99.90
2017-10-22T12:22:33.780Z,99.90
2017-10-22T12:25:02.135Z,99.90
2017-10-22T12:27:30.905Z,99.90
2017-10-22T12:29:59.199Z,99.90
2017-10-22T12:32:27.522Z,99.90
2017-10-22T12:34:55.818Z,99.90
2017-10-22T12:37:24.914Z,99.90
2017-10-22T12:39:53.215Z,99.90
2017-10-22T12:42:21.547Z,99.90
2017-10-22T12:44:49.870Z,99.90
2017-10-22T12:47:18.191Z,99.90
2017-10-22T12:49:46.625Z,99.90
2017-10-22T12:52:14.957Z,99.90
2017-10-22T12:54:43.388Z,99.90
2017-10-22T12:57:11.773Z,99.90
2017-10-22T12:59:40.064Z,99.90
2017-10-22T13:02:08.350Z,99.90
2017-10-22T13:04:36.697Z,99.90
2017-10-22T13:07:04.998Z,99.90
2017-10-22T13:09:33.289Z,99.90
2017-10-22T13:12:01.911Z,99.90
2017-10-22T13:14:30.224Z,99.90
2017-10-22T13:16:58.574Z,99.90
2017-10-22T13:19:27.671Z,99.90
2017-10-22T13:21:56.141Z,99.90
2017-10-22T13:24:24.476Z,99.90
2017-10-22T13:26:52.776Z,99.90
2017-10-22T13:29:21.145Z,99.90
2017-10-22T13:31:49.447Z,99.90
2017-10-22T13:34:17.758Z,99.90
2017-10-22T13:36:46.075Z,99.90
2017-10-22T13:39:14.791Z,99.90
2017-10-22T13:41:43.301Z,99.90
2017-10-22T13:44:11.650Z,99.90
2017-10-22T13:46:39.961Z,99.90
2017-10-22T13:49:08.254Z,99.90
2017-10-22T13:51:36.584Z,99.90
2017-10-22T13:54:04.922Z,99.90
2017-10-22T13:56:33.221Z,99.90
2017-10-22T13:59:02.319Z,99.90
2017-10-22T14:01:30.664Z,99.90
2017-10-22T14:03:58.985Z,99.90
2017-10-22T14:06:27.334Z,99.90
2017-10-22T14:08:55.690Z,99.90
2017-10-22T14:11:25.026Z,99.90
2017-10-22T14:13:53.325Z,99.90
2017-10-22T14:16:22.466Z,99.90
2017-10-22T14:18:50.766Z,99.90
2017-10-22T14:21:19.071Z,99.90
2017-10-22T14:23:47.401Z,99.90
2017-10-22T14:26:20.806Z,99.90
2017-10-22T14:28:49.383Z,99.90
2017-10-22T14:31:17.704Z,99.90
2017-10-22T14:33:46.069Z,99.90
2017-10-22T14:36:15.260Z,99.90
2017-10-22T14:38:44.357Z,99.90
2017-10-22T14:41:12.687Z,99.90
2017-10-22T14:43:41.806Z,99.90
2017-10-22T14:46:10.175Z,99.90
2017-10-22T14:48:38.518Z,99.90
2017-10-22T14:51:06.909Z,99.90
2017-10-22T14:53:35.210Z,99.90
2017-10-22T14:56:08.980Z,99.90
2017-10-22T14:58:39.259Z,99.90
2017-10-22T15:01:07.595Z,99.90
2017-10-22T15:03:35.913Z,99.90
2017-10-22T15:06:04.258Z,99.90
2017-10-22T15:08:32.558Z,99.90
2017-10-22T15:11:01.967Z,99.90
2017-10-22T15:13:33.008Z,99.90
2017-10-22T15:16:01.374Z,99.90
2017-10-22T15:18:29.915Z,99.90
2017-10-22T15:20:58.305Z,99.90
2017-10-22T15:23:26.643Z,99.90
2017-10-22T15:25:55.012Z,99.90
2017-10-22T15:28:24.578Z,99.90
2017-10-22T15:30:52.892Z,99.90
2017-10-22T15:33:22.399Z,99.90
2017-10-22T15:35:50.752Z,99.90
2017-10-22T15:38:19.196Z,99.90
2017-10-22T15:40:47.537Z,99.90
2017-10-22T15:43:15.911Z,99.90
2017-10-22T15:45:44.244Z,99.90
2017-10-22T15:48:12.605Z,99.90
2017-10-22T15:50:40.924Z,99.90
2017-10-22T15:53:10.020Z,99.90
2017-10-22T15:55:38.333Z,99.90
2017-10-22T15:58:07.411Z,99.90
2017-10-22T16:00:36.497Z,99.90
2017-10-22T16:03:05.766Z,99.90
2017-10-22T16:05:34.166Z,99.90
2017-10-22T16:08:02.501Z,99.90
2017-10-22T16:10:34.148Z,99.90
2017-10-22T16:13:02.530Z,99.90
2017-10-22T16:15:31.614Z,99.90
2017-10-22T16:17:59.961Z,99.90
2017-10-22T16:20:29.068Z,99.90
2017-10-22T16:22:57.370Z,99.90
2017-10-22T16:25:25.689Z,99.90
2017-10-22T16:27:54.001Z,99.90
2017-10-22T16:30:22.356Z,99.90
2017-10-22T16:32:50.666Z,99.90
2017-10-22T16:35:19.774Z,99.90
2017-10-22T16:37:48.507Z,99.90
2017-10-22T16:40:16.836Z,99.90
2017-10-22T16:42:47.668Z,99.90
2017-10-22T16:45:16.915Z,99.90
2017-10-22T16:47:45.717Z,99.90
2017-10-22T16:50:15.775Z,99.90
2017-10-22T16:52:45.061Z,99.90
2017-10-22T16:55:13.370Z,99.90
2017-10-22T16:57:42.437Z,99.90
2017-10-22T17:00:10.762Z,99.90
2017-10-22T17:02:39.228Z,99.90
2017-10-22T17:05:07.842Z,99.90
2017-10-22T17:07:36.213Z,99.90
2017-10-22T17:10:04.542Z,99.90
2017-10-22T17:12:32.887Z,99.90
2017-10-22T17:15:01.331Z,99.90
2017-10-22T17:17:30.726Z,99.90
2017-10-22T17:19:59.057Z,99.90
2017-10-22T17:22:27.418Z,99.90
2017-10-22T17:24:55.727Z,99.90
2017-10-22T17:27:24.857Z,99.90
2017-10-22T17:29:53.173Z,99.90
2017-10-22T17:32:21.495Z,99.90
2017-10-22T17:34:49.835Z,99.90
2017-10-22T17:37:18.271Z,99.90
2017-10-22T17:39:47.390Z,99.90
2017-10-22T17:42:15.740Z,99.90
2017-10-22T17:44:44.079Z,99.90
2017-10-22T17:47:12.383Z,99.90
2017-10-22T17:49:40.681Z,99.90
2017-10-22T17:52:10.344Z,99.90
2017-10-22T17:54:38.706Z,99.90
2017-10-22T17:57:07.058Z,99.90
2017-10-22T17:59:35.369Z,99.90
2017-10-22T18:02:03.978Z,99.90
2017-10-22T18:04:33.105Z,99.90
2017-10-22T18:07:01.456Z,99.90
2017-10-22T18:09:29.772Z,99.90
2017-10-22T18:11:59.927Z,99.90
2017-10-22T18:14:28.249Z,99.90
2017-10-22T18:16:56.609Z,99.90
2017-10-22T18:19:24.901Z,99.90
2017-10-22T18:21:53.230Z,99.90
2017-10-22T18:24:21.600Z,99.90
2017-10-22T18:26:51.980Z,99.90
2017-10-22T18:29:20.383Z,99.90
2017-10-22T18:31:48.705Z,99.90
2017-10-22T18:34:17.840Z,99.90
2017-10-22T18:36:46.162Z,99.90
2017-10-22T18:39:14.462Z,99.90
2017-10-22T18:41:43.603Z,99.90
2017-10-22T18:44:12.765Z,99.90
2017-10-22T18:46:41.092Z,99.90
2017-10-22T18:49:09.682Z,99.90
2017-10-22T18:51:38.787Z,99.90
2017-10-22T18:54:07.117Z,99.90
2017-10-22T18:56:35.437Z,99.90
2017-10-22T18:59:04.491Z,99.90
2017-10-22T19:01:33.597Z,99.90
2017-10-22T19:04:01.926Z,99.90
2017-10-22T19:06:31.054Z,99.90
2017-10-22T19:08:59.368Z,99.90
2017-10-22T19:11:27.740Z,99.90
2017-10-22T19:13:56.052Z,99.90
2017-10-22T19:16:24.387Z,99.90
2017-10-22T19:18:52.708Z,99.90
2017-10-22T19:21:21.053Z,99.90
2017-10-22T19:23:50.332Z,99.90
2017-10-22T19:26:18.664Z,99.90
2017-10-22T19:28:47.054Z,99.90
2017-10-22T19:31:15.361Z,99.90
2017-10-22T19:33:44.416Z,99.90
2017-10-22T19:36:14.370Z,99.90
2017-10-22T19:38:42.715Z,99.90
2017-10-22T19:41:12.110Z,99.90
2017-10-22T19:43:40.474Z,99.90
2017-10-22T19:46:09.573Z,99.90
2017-10-22T19:48:37.989Z,99.90
2017-10-22T19:51:06.313Z,99.90
2017-10-22T19:53:34.670Z,99.90
2017-10-22T19:56:02.981Z,99.90
2017-10-22T19:58:31.266Z,99.90
2017-10-22T20:01:00.378Z,99.90
2017-10-22T20:03:28.710Z,99.90
2017-10-22T20:05:57.071Z,99.90
2017-10-22T20:08:25.437Z,99.90
2017-10-22T20:10:53.734Z,99.90
2017-10-22T20:13:22.104Z,99.90
2017-10-22T20:15:50.409Z,99.90
2017-10-22T20:18:18.734Z,99.90
2017-10-22T20:20:47.072Z,99.90
2017-10-22T20:23:16.177Z,99.90
2017-10-22T20:25:44.484Z,99.90
2017-10-22T20:28:13.879Z,99.90
2017-10-22T20:30:43.663Z,99.90
2017-10-22T20:33:11.996Z,99.90
2017-10-22T20:35:40.294Z,99.90
2017-10-22T20:38:15.031Z,99.90
2017-10-22T20:40:43.356Z,99.90
2017-10-22T20:43:11.684Z,99.90
2017-10-22T20:45:40.019Z,99.90
2017-10-22T20:48:08.308Z,99.90
2017-10-22T20:50:37.450Z,99.90
2017-10-22T20:53:05.781Z,99.90
2017-10-22T20:55:34.094Z,99.90
2017-10-22T20:58:03.181Z,99.90
2017-10-22T21:00:31.473Z,99.90
2017-10-22T21:02:59.787Z,99.90
2017-10-22T21:05:28.934Z,99.90
2017-10-22T21:07:57.240Z,99.90
2017-10-22T21:10:25.558Z,99.90
2017-10-22T21:12:53.901Z,99.90
2017-10-22T21:15:22.993Z,99.90
2017-10-22T21:17:51.313Z,99.90
2017-10-22T21:20:20.396Z,99.90
2017-10-22T21:22:48.715Z,99.90
2017-10-22T21:25:17.811Z,99.90
2017-10-22T21:27:46.145Z,99.90
2017-10-22T21:30:15.210Z,99.90
2017-10-22T21:32:43.521Z,99.80
2017-10-22T21:35:11.865Z,99.60
2017-10-22T21:37:40.165Z,99.40
2017-10-22T21:40:08.471Z,99.70
2017-10-22T21:42:36.811Z,99.30
2017-10-22T21:45:05.170Z,99.20
2017-10-22T21:47:33.476Z,99.10
2017-10-22T21:50:01.872Z,99.50
2017-10-22T21:52:30.161Z,98.70
2017-10-22T21:54:59.304Z,99.10
2017-10-22T21:57:29.146Z,98.50
2017-10-22T21:59:57.469Z,99.10
2017-10-22T22:02:25.779Z,98.80
2017-10-22T22:04:54.140Z,98.10
2017-10-22T22:07:22.488Z,99.40
2017-10-22T22:09:50.811Z,99.60
2017-10-22T22:12:19.145Z,99.30
2017-10-22T22:14:47.673Z,98.70
2017-10-22T22:17:15.989Z,98.90
2017-10-22T22:19:44.328Z,98.80
2017-10-22T22:22:12.648Z,99.40
2017-10-22T22:24:41.021Z,99.50
2017-10-22T22:27:09.360Z,99.90
2017-10-22T22:29:38.462Z,99.90
2017-10-22T22:32:06.818Z,99.90
2017-10-22T22:34:35.117Z,99.60
2017-10-22T22:37:03.405Z,99.50
2017-10-22T22:39:31.760Z,99.80
2017-10-22T22:42:00.061Z,99.90
2017-10-22T22:44:28.888Z,99.80
2017-10-22T22:46:57.220Z,99.90
2017-10-22T22:49:25.569Z,99.90
2017-10-22T22:51:53.871Z,99.70
2017-10-22T22:54:22.207Z,99.50
2017-10-22T22:56:50.490Z,99.90
2017-10-22T22:59:18.821Z,99.70
2017-10-22T23:01:47.115Z,99.60
2017-10-22T23:04:15.433Z,99.60
2017-10-22T23:06:44.513Z,99.90
2017-10-22T23:09:13.633Z,99.90
2017-10-22T23:11:42.003Z,99.90
2017-10-22T23:14:11.099Z,99.90
2017-10-22T23:16:39.391Z,99.90
2017-10-22T23:19:07.727Z,99.90
2017-10-22T23:21:36.033Z,99.90
2017-10-22T23:24:04.367Z,99.90
2017-10-22T23:26:32.669Z,99.90
2017-10-22T23:29:01.031Z,99.90
2017-10-22T23:31:29.346Z,99.90
2017-10-22T23:33:58.450Z,99.90
2017-10-22T23:36:27.400Z,99.90
2017-10-22T23:38:55.689Z,99.90
2017-10-22T23:41:24.074Z,99.90
2017-10-22T23:43:52.401Z,99.90
2017-10-22T23:46:20.746Z,99.90
2017-10-22T23:48:49.841Z,99.90
2017-10-22T23:51:18.159Z,99.90
2017-10-22T23:53:47.292Z,99.90
2017-10-22T23:56:15.619Z,99.90
2017-10-22T23:58:43.952Z,99.90
